Holton, Michigan
Current Conditions -  °F | °C
As of 1:53 AM on Saturday 25 Oct 2014 (Local Time) from KFFX Reporting Station
Haze Haze  
Wind Chill: 45°   Ceiling: 7500
Heat Index: 47°   Visibility: 2.5mi
Dew Point: 47°   Wind: 5mph
Humidity: 98%   Direction: 160°SSE
Pressure: 29.87"   Gusts: NA
Location:  43.41°N, 86.08°W
Report Text: KFFX 250553Z AUTO 16004KT 2 1/2SM BR OVC075 08/08 A2987 RMK AO2 T00840081
Loading
Personal Weather Stations






























Interactive Weather Map
Tropical Storm Tracking
New forecast layout! Learn more

10-Day Weather Forecast

Advertisements
Track Severe Weather on mobile